createdAt,value
2022-09-23T00:02:26.824Z,99363.61
2022-09-23T00:04:56.027Z,99359.04
2022-09-23T00:07:25.251Z,99354.93
2022-09-23T00:09:55.641Z,99352.89
2022-09-23T00:12:24.290Z,99353.20
2022-09-23T00:14:53.519Z,99352.77
2022-09-23T00:17:23.855Z,99356.29
2022-09-23T00:19:52.625Z,99355.55
2022-09-23T00:22:22.327Z,99351.48
2022-09-23T00:24:50.822Z,99347.81
2022-09-23T00:27:21.760Z,99342.48
2022-09-23T00:29:50.828Z,99342.30
2022-09-23T00:32:19.392Z,99339.55
2022-09-23T00:34:48.738Z,99339.83
2022-09-23T00:37:17.848Z,99337.97
2022-09-23T00:39:46.978Z,99339.52
2022-09-23T00:42:20.713Z,99342.41
2022-09-23T00:44:53.362Z,99335.39
2022-09-23T00:47:51.226Z,99332.20
2022-09-23T00:50:35.527Z,99330.88
2022-09-23T00:53:10.502Z,99332.67
2022-09-23T00:55:46.961Z,99328.48
2022-09-23T00:58:19.617Z,99325.03
2022-09-23T01:00:48.722Z,99327.14
2022-09-23T01:03:18.915Z,99324.20
2022-09-23T01:05:48.856Z,99322.41
2022-09-23T01:08:18.869Z,99320.09
2022-09-23T01:11:15.225Z,99318.14
2022-09-23T01:14:07.072Z,99314.28
2022-09-23T01:17:09.944Z,99311.34
2022-09-23T01:19:57.575Z,99311.39
2022-09-23T01:22:50.487Z,99306.45
2022-09-23T01:25:51.449Z,99304.09
2022-09-23T01:28:34.124Z,99296.78
2022-09-23T01:31:15.722Z,99297.59
2022-09-23T01:34:11.863Z,99297.27
2022-09-23T01:36:51.661Z,99294.25
2022-09-23T01:39:40.772Z,99292.91
2022-09-23T01:42:09.916Z,99291.71
2022-09-23T01:44:48.219Z,99290.27
2022-09-23T01:47:23.135Z,99291.92
2022-09-23T01:49:57.909Z,99290.77
2022-09-23T01:52:47.596Z,99294.00
2022-09-23T01:55:26.847Z,99288.59
2022-09-23T01:58:07.700Z,99292.86
2022-09-23T02:00:43.318Z,99292.34
2022-09-23T02:03:19.687Z,99287.47
2022-09-23T02:05:57.402Z,99286.98
2022-09-23T02:08:34.863Z,99289.25
2022-09-23T02:11:09.624Z,99288.41
2022-09-23T02:13:40.390Z,99290.80
2022-09-23T02:16:23.112Z,99289.23
2022-09-23T02:19:02.361Z,99290.63
2022-09-23T02:21:36.766Z,99285.50
2022-09-23T02:24:14.940Z,99283.44
2022-09-23T02:27:24.731Z,99284.94
2022-09-23T02:30:12.041Z,99281.13
2022-09-23T02:33:00.276Z,99279.48
2022-09-23T02:35:31.338Z,99274.60
2022-09-23T02:38:42.513Z,99275.67
2022-09-23T02:41:23.789Z,99273.31
2022-09-23T02:43:55.636Z,99273.73
2022-09-23T02:46:24.836Z,99272.28
2022-09-23T02:48:57.362Z,99268.33
2022-09-23T02:51:25.980Z,99271.27
2022-09-23T02:53:56.792Z,99270.28
2022-09-23T02:56:25.569Z,99267.76
2022-09-23T02:58:55.817Z,99264.20
2022-09-23T03:01:53.296Z,99267.46
2022-09-23T03:04:39.407Z,99264.06
2022-09-23T03:07:19.713Z,99263.86
2022-09-23T03:10:06.956Z,99264.84
2022-09-23T03:12:38.853Z,99261.38
2022-09-23T03:15:32.088Z,99261.54
2022-09-23T03:18:19.088Z,99259.70
2022-09-23T03:21:03.607Z,99262.70
2022-09-23T03:23:36.147Z,99264.30
2022-09-23T03:26:15.674Z,99261.03
2022-09-23T03:28:46.344Z,99263.17
2022-09-23T03:31:16.607Z,99263.65
2022-09-23T03:33:53.033Z,99264.31
2022-09-23T03:36:51.971Z,99259.25
2022-09-23T03:39:27.072Z,99259.98
2022-09-23T03:41:59.732Z,99257.71
2022-09-23T03:44:29.708Z,99253.33
2022-09-23T03:47:02.693Z,99251.17
2022-09-23T03:49:36.661Z,99246.96
2022-09-23T03:52:06.810Z,99247.77
2022-09-23T03:54:35.292Z,99249.08
2022-09-23T03:57:04.250Z,99241.20
2022-09-23T03:59:33.847Z,99244.81
2022-09-23T04:02:02.847Z,99239.44
2022-09-23T04:04:34.822Z,99242.07
2022-09-23T04:07:04.019Z,99237.45
2022-09-23T04:09:33.648Z,99238.34
2022-09-23T04:12:04.011Z,99233.09
2022-09-23T04:14:33.594Z,99237.67
2022-09-23T04:17:03.185Z,99237.02
2022-09-23T04:19:32.377Z,99238.23
2022-09-23T04:22:01.659Z,99237.19
2022-09-23T04:24:30.422Z,99235.09
2022-09-23T04:26:59.273Z,99236.33
2022-09-23T04:29:28.792Z,99234.57
2022-09-23T04:31:58.135Z,99236.03
2022-09-23T04:34:27.778Z,99236.42
2022-09-23T04:36:57.128Z,99234.92
2022-09-23T04:39:26.137Z,99234.95
2022-09-23T04:41:54.929Z,99237.70
2022-09-23T04:44:24.854Z,99234.98
2022-09-23T04:46:54.052Z,99241.02
2022-09-23T04:49:23.069Z,99240.59
2022-09-23T04:51:52.156Z,99240.89
2022-09-23T04:54:21.420Z,99236.61
2022-09-23T04:56:50.428Z,99237.67
2022-09-23T04:59:19.623Z,99237.34
2022-09-23T05:01:48.688Z,99238.61
2022-09-23T05:04:18.043Z,99239.48
2022-09-23T05:06:47.321Z,99240.74
2022-09-23T05:09:17.752Z,99240.02
2022-09-23T05:11:47.122Z,99238.30
2022-09-23T05:14:16.247Z,99245.77
2022-09-23T05:16:45.121Z,99243.64
2022-09-23T05:19:14.205Z,99243.55
2022-09-23T05:21:43.552Z,99245.67
2022-09-23T05:24:12.970Z,99250.09
2022-09-23T05:26:42.420Z,99248.70
2022-09-23T05:29:11.788Z,99248.41
2022-09-23T05:31:40.553Z,99250.45
2022-09-23T05:34:09.991Z,99250.91
2022-09-23T05:36:39.392Z,99251.75
2022-09-23T05:39:08.942Z,99250.52
2022-09-23T05:41:39.623Z,99245.46
2022-09-23T05:44:09.772Z,99251.23
2022-09-23T05:46:38.791Z,99252.60
2022-09-23T05:49:08.700Z,99252.70
2022-09-23T05:51:38.784Z,99246.66
2022-09-23T05:54:08.739Z,99245.92
2022-09-23T05:56:39.655Z,99241.08
2022-09-23T05:59:08.733Z,99237.48
2022-09-23T06:01:38.939Z,99234.27
2022-09-23T06:04:09.008Z,99244.10
2022-09-23T06:06:40.581Z,99245.68
2022-09-23T06:09:16.830Z,99248.69
2022-09-23T06:11:47.288Z,99250.39
2022-09-23T06:14:16.413Z,99253.79
2022-09-23T06:16:46.064Z,99254.16
2022-09-23T06:19:15.861Z,99259.45
2022-09-23T06:21:44.600Z,99262.34
2022-09-23T06:24:18.805Z,99265.27
2022-09-23T06:26:50.094Z,99267.03
2022-09-23T06:29:19.408Z,99271.78
2022-09-23T06:31:49.990Z,99274.33
2022-09-23T06:34:20.121Z,99271.27
2022-09-23T06:36:49.798Z,99272.58
2022-09-23T06:39:18.476Z,99275.89
2022-09-23T06:41:47.952Z,99277.98
2022-09-23T06:44:17.054Z,99278.73
2022-09-23T06:46:46.229Z,99278.98
2022-09-23T06:49:15.340Z,99280.77
2022-09-23T06:51:44.547Z,99283.75
2022-09-23T06:54:14.626Z,99284.76
2022-09-23T06:56:47.976Z,99284.00
2022-09-23T06:59:17.618Z,99284.99
2022-09-23T07:01:48.857Z,99285.04
2022-09-23T07:04:17.828Z,99286.90
2022-09-23T07:06:46.668Z,99282.37
2022-09-23T07:09:15.644Z,99286.29
2022-09-23T07:11:44.348Z,99285.91
2022-09-23T07:14:15.044Z,99287.75
2022-09-23T07:16:44.773Z,99290.27
2022-09-23T07:19:13.976Z,99288.16
2022-09-23T07:21:42.918Z,99285.35
2022-09-23T07:24:11.760Z,99282.77
2022-09-23T07:26:45.554Z,99283.67
2022-09-23T07:29:16.416Z,99285.70
2022-09-23T07:31:45.325Z,99279.83
2022-09-23T07:34:14.110Z,99283.98
2022-09-23T07:36:43.563Z,99285.25
2022-09-23T07:39:13.720Z,99284.15
2022-09-23T07:41:45.015Z,99287.05
2022-09-23T07:44:14.467Z,99286.35
2022-09-23T07:46:43.684Z,99285.65
2022-09-23T07:49:14.102Z,99283.73
2022-09-23T07:51:47.000Z,99280.97
2022-09-23T07:54:17.537Z,99280.20
2022-09-23T07:56:47.162Z,99276.41
2022-09-23T07:59:28.281Z,99273.73
2022-09-23T08:02:16.892Z,99273.30
2022-09-23T08:04:47.015Z,99278.24
2022-09-23T08:07:16.866Z,99274.92
2022-09-23T08:09:47.003Z,99271.08
2022-09-23T08:12:19.178Z,99269.86
2022-09-23T08:14:48.485Z,99264.21
2022-09-23T08:17:17.651Z,99264.53
2022-09-23T08:19:46.498Z,99263.67
2022-09-23T08:22:16.603Z,99259.71
2022-09-23T08:24:45.859Z,99255.70
2022-09-23T08:27:15.155Z,99253.23
2022-09-23T08:29:44.133Z,99252.14
2022-09-23T08:32:12.916Z,99253.77
2022-09-23T08:34:42.139Z,99248.27
2022-09-23T08:37:11.577Z,99250.30
2022-09-23T08:39:40.368Z,99245.32
2022-09-23T08:42:20.178Z,99251.48
2022-09-23T08:44:56.785Z,99253.36
2022-09-23T08:47:44.290Z,99256.79
2022-09-23T08:50:23.275Z,99256.28
2022-09-23T08:53:07.041Z,99252.60
2022-09-23T08:55:42.429Z,99253.96
2022-09-23T08:58:31.167Z,99249.05
2022-09-23T09:01:17.010Z,99244.38
2022-09-23T14:35:05.781Z,98921.65
2022-09-23T14:37:56.067Z,98915.39
2022-09-23T14:40:33.882Z,98916.27
2022-09-23T14:43:02.866Z,98913.31
2022-09-23T14:45:38.081Z,98914.25
2022-09-23T14:48:35.097Z,98912.04
2022-09-23T14:51:16.083Z,98913.61
2022-09-23T14:53:46.776Z,98911.36
2022-09-23T14:56:21.940Z,98907.86
2022-09-23T14:58:55.416Z,98906.27
2022-09-23T15:01:41.998Z,98912.04
2022-09-23T15:04:17.429Z,98909.59
2022-09-23T15:06:51.543Z,98909.27
2022-09-23T15:09:27.552Z,98907.34
2022-09-23T15:12:07.607Z,98912.02
2022-09-23T15:14:41.078Z,98905.89
2022-09-23T15:17:26.145Z,98905.36
2022-09-23T15:19:58.723Z,98904.48
2022-09-23T15:22:27.828Z,98901.48
2022-09-23T15:25:15.507Z,98897.63
2022-09-23T15:28:00.706Z,98895.02
2022-09-23T15:30:31.101Z,98897.45
2022-09-23T15:33:00.301Z,98900.27
2022-09-23T15:35:32.465Z,98896.41
2022-09-23T15:38:03.596Z,98890.71
2022-09-23T15:40:35.507Z,98891.50
2022-09-23T15:43:20.655Z,98889.81
2022-09-23T15:45:54.800Z,98888.30
2022-09-23T15:48:33.155Z,98887.62
2022-09-23T15:51:08.776Z,98891.86
2022-09-23T15:53:38.861Z,98892.24
2022-09-23T15:56:08.156Z,98892.97
2022-09-23T15:58:37.314Z,98896.70
2022-09-23T16:01:06.683Z,98898.13
2022-09-23T16:03:35.514Z,98899.88
2022-09-23T16:06:06.569Z,98898.14
2022-09-23T16:08:35.638Z,98896.77
2022-09-23T16:11:06.449Z,98895.90
2022-09-23T16:13:35.765Z,98893.33
2022-09-23T16:16:05.458Z,98885.86
2022-09-23T16:18:34.316Z,98886.41
2022-09-23T16:21:05.241Z,98889.04
2022-09-23T16:23:44.020Z,98887.66
2022-09-23T16:26:20.403Z,98886.14
2022-09-23T16:28:51.585Z,98883.52
2022-09-23T16:31:24.837Z,98884.58
2022-09-23T16:33:54.290Z,98878.31
2022-09-23T16:36:24.226Z,98877.48
2022-09-23T16:38:57.301Z,98882.02
2022-09-23T16:41:34.712Z,98884.16
2022-09-23T16:44:06.102Z,98882.45
2022-09-23T16:46:35.891Z,98882.48
2022-09-23T16:49:05.178Z,98885.63
2022-09-23T16:51:40.785Z,98883.92
2022-09-23T16:54:13.585Z,98886.73
2022-09-23T16:56:44.901Z,98882.58
2022-09-23T16:59:16.301Z,98885.76
2022-09-23T17:02:08.902Z,98888.23
2022-09-23T17:05:03.130Z,98887.92
2022-09-23T17:07:51.690Z,98880.63
2022-09-23T17:10:45.049Z,98880.83
2022-09-23T17:13:44.949Z,98878.91
2022-09-23T17:16:40.810Z,98878.71
2022-09-23T17:19:30.104Z,98878.20
2022-09-23T17:22:30.113Z,98874.55
2022-09-23T17:28:25.286Z,98872.83
2022-09-23T17:31:21.211Z,98875.27
2022-09-23T17:34:11.429Z,98870.39
2022-09-23T17:37:07.451Z,98865.52
2022-09-23T17:39:44.169Z,98860.11
2022-09-23T17:42:15.306Z,98859.91
2022-09-23T17:44:44.197Z,98856.44
2022-09-23T17:47:13.835Z,98858.86
2022-09-23T17:49:47.257Z,98855.02
2022-09-23T17:52:17.777Z,98857.98
2022-09-23T17:54:46.624Z,98859.70
2022-09-23T17:57:15.677Z,98863.70
2022-09-23T17:59:44.819Z,98862.30
2022-09-23T18:02:15.685Z,98862.82
2022-09-23T18:04:45.219Z,98861.09
2022-09-23T18:07:14.686Z,98862.08
2022-09-23T18:09:43.472Z,98865.54
2022-09-23T18:12:12.408Z,98863.46
2022-09-23T18:14:41.837Z,98863.77
2022-09-23T18:17:10.959Z,98864.83
2022-09-23T18:19:41.553Z,98861.17
2022-09-23T18:22:10.757Z,98866.39
2022-09-23T18:24:41.490Z,98861.00
2022-09-23T18:27:10.439Z,98854.20
2022-09-23T18:29:39.513Z,98855.59
2022-09-23T18:32:13.367Z,98851.92
2022-09-23T18:34:44.660Z,98848.79
2022-09-23T18:37:16.022Z,98848.25
2022-09-23T18:39:45.269Z,98842.85
2022-09-23T18:42:16.348Z,98844.04
2022-09-23T18:44:45.218Z,98840.90
2022-09-23T18:47:34.037Z,98841.25
2022-09-23T18:50:21.596Z,98842.30
2022-09-23T18:52:51.601Z,98836.73
2022-09-23T18:55:20.823Z,98839.35
2022-09-23T18:57:49.535Z,98840.92
2022-09-23T19:00:20.470Z,98839.02
2022-09-23T19:02:49.269Z,98841.64
2022-09-23T19:05:19.258Z,98844.58
2022-09-23T19:07:49.107Z,98840.73
2022-09-23T19:10:19.458Z,98842.45
2022-09-23T19:12:48.355Z,98845.56
2022-09-23T19:15:17.833Z,98848.33
2022-09-23T19:17:47.207Z,98846.23
2022-09-23T19:20:16.191Z,98844.48
2022-09-23T19:22:48.257Z,98842.23
2022-09-23T19:25:18.878Z,98840.67
2022-09-23T19:27:49.112Z,98843.64
2022-09-23T19:30:19.432Z,98841.55
2022-09-23T19:32:49.759Z,98846.05
2022-09-23T19:35:18.417Z,98847.41
2022-09-23T19:37:49.686Z,98841.84
2022-09-23T19:40:21.350Z,98840.76
2022-09-23T19:42:56.008Z,98839.84
2022-09-23T19:45:25.505Z,98842.77
2022-09-23T19:47:57.228Z,98845.35
2022-09-23T19:50:27.273Z,98849.14
2022-09-23T19:52:57.275Z,98844.27
2022-09-23T19:55:26.344Z,98840.98
2022-09-23T19:57:57.196Z,98846.36
2022-09-23T20:00:27.175Z,98840.96
2022-09-23T20:02:55.977Z,98840.25
2022-09-23T20:05:28.942Z,98841.11
2022-09-23T20:08:00.417Z,98842.64
2022-09-23T20:10:33.545Z,98840.34
2022-09-23T20:13:03.485Z,98835.98
2022-09-23T20:15:32.395Z,98835.96
2022-09-23T20:18:02.603Z,98835.44
2022-09-23T20:20:32.184Z,98835.97
2022-09-23T20:23:01.029Z,98829.70
2022-09-23T20:25:50.065Z,98826.02
2022-09-23T20:28:21.605Z,98825.98
2022-09-23T20:30:53.461Z,98825.59
2022-09-23T20:33:24.264Z,98824.90
2022-09-23T20:35:53.901Z,98825.88
2022-09-23T20:38:23.073Z,98823.60
2022-09-23T20:40:56.929Z,98826.52
2022-09-23T20:43:27.117Z,98823.54
2022-09-23T20:45:56.290Z,98825.26
2022-09-23T20:48:25.622Z,98820.41
2022-09-23T20:51:00.594Z,98824.39
2022-09-23T20:53:31.536Z,98818.84
2022-09-23T20:56:01.234Z,98816.42
2022-09-23T20:58:32.285Z,98814.34
2022-09-23T21:01:11.051Z,98812.26
2022-09-23T21:03:45.000Z,98813.48
2022-09-23T21:06:16.113Z,98816.40
2022-09-23T21:08:46.243Z,98813.27
2022-09-23T21:11:17.137Z,98810.10
2022-09-23T21:13:51.311Z,98813.14
2022-09-23T21:16:22.889Z,98815.03
2022-09-23T21:18:53.280Z,98813.48
2022-09-23T21:21:22.647Z,98813.66
2022-09-23T21:23:51.557Z,98812.08
2022-09-23T21:26:25.325Z,98808.58
2022-09-23T21:28:58.055Z,98809.02
2022-09-23T21:31:34.160Z,98803.88
2022-09-23T21:34:09.067Z,98802.01
2022-09-23T21:36:43.365Z,98801.27
2022-09-23T21:39:12.727Z,98801.80
2022-09-23T21:41:42.518Z,98800.83
2022-09-23T21:44:12.404Z,98806.45
2022-09-23T21:46:41.619Z,98807.36
2022-09-23T21:49:10.750Z,98804.95
2022-09-23T21:51:41.521Z,98805.46
2022-09-23T21:54:19.057Z,98804.77
2022-09-23T21:56:48.580Z,98803.50
2022-09-23T21:59:18.135Z,98802.58
2022-09-23T22:01:50.543Z,98799.40
2022-09-23T22:04:23.310Z,98796.94
2022-09-23T22:06:52.689Z,98797.05
2022-09-23T22:09:22.052Z,98796.67
2022-09-23T22:12:08.401Z,98795.44
2022-09-23T22:14:39.256Z,98796.44
2022-09-23T22:17:10.934Z,98796.39
2022-09-23T22:19:45.868Z,98793.95
2022-09-23T22:22:18.909Z,98790.75
2022-09-23T22:24:49.912Z,98788.20
2022-09-23T22:27:20.242Z,98785.02
2022-09-23T22:30:07.618Z,98786.04
2022-09-23T22:32:44.026Z,98787.96
2022-09-23T22:35:18.587Z,98788.84
2022-09-23T22:37:51.314Z,98785.41
2022-09-23T22:40:20.338Z,98782.33
2022-09-23T22:42:50.120Z,98782.50
2022-09-23T22:45:19.446Z,98780.04
2022-09-23T22:47:48.410Z,98778.41
2022-09-23T22:50:25.370Z,98775.58
2022-09-23T22:52:54.377Z,98772.06
2022-09-23T22:55:23.406Z,98767.48
2022-09-23T22:57:52.148Z,98769.01
2022-09-23T23:00:22.768Z,98769.02
2022-09-23T23:02:51.842Z,98770.92
2022-09-23T23:05:20.595Z,98772.30
2022-09-23T23:07:49.616Z,98769.67
2022-09-23T23:10:19.722Z,98771.45
2022-09-23T23:12:49.904Z,98771.64
2022-09-23T23:15:18.669Z,98775.36
2022-09-23T23:17:47.800Z,98772.34
2022-09-23T23:20:17.093Z,98768.49
2022-09-23T23:22:45.830Z,98769.35
2022-09-23T23:25:15.091Z,98766.60
2022-09-23T23:27:44.173Z,98766.16
2022-09-23T23:30:13.347Z,98763.14
2022-09-23T23:32:42.442Z,98764.59
2022-09-23T23:35:11.365Z,98758.75
2022-09-23T23:37:41.712Z,98760.42
2022-09-23T23:40:11.842Z,98756.39
2022-09-23T23:42:41.053Z,98749.27
2022-09-23T23:45:10.026Z,98747.38
2022-09-23T23:47:40.448Z,98741.02
2022-09-23T23:50:10.464Z,98735.05
2022-09-23T23:52:39.251Z,98736.15
2022-09-23T23:55:08.567Z,98735.34
2022-09-23T23:57:38.041Z,98733.91
